Time;durP1;ratioP1;P1;durP2;ratioP2;P2;SDS_P1;SDS_P2;PMS_P1;PMS_P2;Temp;Humidity;BMP_temperature;BMP_pressure;BME280_temperature;BME280_humidity;BME280_pressure;Samples;Min_cycle;Max_cycle;Signal;HPM_P1;HPM_P2
2024/01/10 00:00:13;;;;;;;19.43;6.47;;;-5.50;99.90;;;;;;5051855;28;20645;-70
2024/01/10 00:02:38;;;;;;;15.00;6.40;;;-5.50;99.90;;;;;;5050482;28;20282;-71
2024/01/10 00:05:04;;;;;;;9.90;5.30;;;-5.50;99.90;;;;;;5051326;28;20461;-71
2024/01/10 00:07:30;;;;;;;9.13;4.40;;;-5.50;99.90;;;;;;5051883;28;20178;-71
2024/01/10 00:09:57;;;;;;;12.77;5.93;;;-5.50;99.90;;;;;;5051738;28;20803;-70
2024/01/10 00:12:22;;;;;;;7.47;4.70;;;-5.50;99.90;;;;;;5051805;28;20572;-71
2024/01/10 00:14:48;;;;;;;7.43;6.33;;;-5.50;99.90;;;;;;5051442;28;20536;-70
2024/01/10 00:17:13;;;;;;;7.70;4.17;;;-5.50;99.90;;;;;;5051463;28;20170;-70
2024/01/10 00:19:39;;;;;;;6.93;3.83;;;-5.50;99.90;;;;;;5050296;28;20183;-71
2024/01/10 00:22:05;;;;;;;10.97;4.20;;;-5.50;99.90;;;;;;5050416;28;20627;-70
2024/01/10 00:24:30;;;;;;;14.40;5.43;;;-5.50;99.90;;;;;;5052230;28;20209;-71
2024/01/10 00:26:55;;;;;;;8.73;4.90;;;-5.50;99.90;;;;;;5055716;28;20175;-70
2024/01/10 00:29:21;;;;;;;11.10;6.20;;;-5.60;99.90;;;;;;5055922;28;20663;-71
2024/01/10 00:31:46;;;;;;;8.83;4.90;;;-5.60;99.90;;;;;;5055605;28;20174;-71
2024/01/10 00:34:12;;;;;;;5.10;3.53;;;-5.60;99.90;;;;;;5055388;28;20191;-71
2024/01/10 00:36:38;;;;;;;10.17;4.93;;;-5.60;99.90;;;;;;5055278;28;20175;-70
2024/01/10 00:39:03;;;;;;;5.27;3.83;;;-5.60;99.90;;;;;;5055354;28;20214;-71
2024/01/10 00:41:29;;;;;;;8.37;4.50;;;-5.60;99.90;;;;;;5055433;28;20713;-70
2024/01/10 00:43:54;;;;;;;5.33;4.77;;;-5.60;99.90;;;;;;5055026;28;20575;-72
2024/01/10 00:46:20;;;;;;;9.00;3.70;;;-5.60;99.90;;;;;;5054005;28;20181;-71
2024/01/10 00:48:46;;;;;;;9.17;4.53;;;-5.60;99.90;;;;;;5055278;28;20178;-71
2024/01/10 00:51:11;;;;;;;6.60;4.10;;;-5.60;99.90;;;;;;5055030;28;20167;-71
2024/01/10 00:53:42;;;;;;;5.37;2.97;;;-5.70;99.90;;;;;;5053638;28;20683;-71
2024/01/10 00:56:07;;;;;;;13.43;7.20;;;-5.70;99.90;;;;;;5055217;28;20171;-72
2024/01/10 00:58:33;;;;;;;7.27;3.90;;;-5.70;99.90;;;;;;5055336;28;20404;-71
2024/01/10 01:00:59;;;;;;;5.80;3.83;;;-5.70;99.90;;;;;;5053961;28;20181;-70
2024/01/10 01:03:24;;;;;;;10.13;4.47;;;-5.70;99.90;;;;;;5054516;28;20265;-70
2024/01/10 01:05:50;;;;;;;4.60;3.40;;;-5.70;99.90;;;;;;5054699;28;20187;-71
2024/01/10 01:08:15;;;;;;;13.77;4.27;;;-5.70;99.90;;;;;;5054839;28;20167;-72
2024/01/10 01:10:41;;;;;;;7.20;4.00;;;-5.60;99.90;;;;;;5055040;28;20169;-71
2024/01/10 01:13:07;;;;;;;10.40;4.50;;;-5.60;99.90;;;;;;5054694;28;20217;-72
2024/01/10 01:15:32;;;;;;;12.70;4.53;;;-5.60;99.90;;;;;;5055122;28;20213;-73
2024/01/10 01:17:58;;;;;;;5.33;4.00;;;-5.60;99.90;;;;;;5054905;28;20665;-72
2024/01/10 01:20:23;;;;;;;4.17;3.10;;;-5.60;99.90;;;;;;5054866;28;20163;-72
2024/01/10 01:22:49;;;;;;;5.37;3.93;;;-5.60;99.90;;;;;;5054496;28;20174;-72
2024/01/10 01:25:14;;;;;;;6.30;3.93;;;-5.60;99.90;;;;;;5054518;28;20225;-73
2024/01/10 01:27:40;;;;;;;7.10;4.50;;;-5.60;99.90;;;;;;5054487;28;20170;-72
2024/01/10 01:30:06;;;;;;;13.93;6.30;;;-5.60;99.90;;;;;;5054634;28;20666;-72
2024/01/10 01:32:32;;;;;;;10.27;5.03;;;-5.60;99.90;;;;;;5054823;28;20669;-72
2024/01/10 01:34:57;;;;;;;10.30;3.93;;;-5.60;99.90;;;;;;5054016;28;20528;-72
2024/01/10 01:37:23;;;;;;;5.27;3.80;;;-5.60;99.90;;;;;;5053270;28;20251;-71
2024/01/10 01:39:49;;;;;;;6.87;3.40;;;-5.60;99.90;;;;;;5054436;28;20229;-71
2024/01/10 01:42:15;;;;;;;6.17;3.80;;;-5.60;99.90;;;;;;5054327;28;20170;-71
2024/01/10 01:44:40;;;;;;;7.97;4.17;;;-5.60;99.90;;;;;;5053990;28;20461;-70
2024/01/10 01:47:06;;;;;;;6.37;4.53;;;-5.60;99.90;;;;;;5054355;28;20174;-71
2024/01/10 01:49:32;;;;;;;5.70;4.63;;;-5.60;99.90;;;;;;5054342;28;20221;-71
2024/01/10 01:51:59;;;;;;;9.07;3.73;;;-5.60;99.90;;;;;;5054010;28;20229;-71
2024/01/10 01:54:25;;;;;;;11.73;4.67;;;-5.60;99.90;;;;;;5053930;28;21006;-71
2024/01/10 01:56:51;;;;;;;6.00;3.40;;;-5.60;99.90;;;;;;5054114;28;20397;-73
2024/01/10 01:59:17;;;;;;;11.53;4.70;;;-5.60;99.90;;;;;;5054105;28;20425;-72
2024/01/10 02:01:42;;;;;;;10.70;5.47;;;-5.60;99.90;;;;;;5054060;28;20463;-71
2024/01/10 02:04:08;;;;;;;8.40;4.57;;;-5.60;99.90;;;;;;5053635;28;20199;-72
2024/01/10 02:06:34;;;;;;;8.13;4.63;;;-5.60;99.90;;;;;;5053794;28;20167;-72
2024/01/10 02:08:59;;;;;;;8.80;4.10;;;-5.60;99.90;;;;;;5053767;28;20220;-73
2024/01/10 02:11:26;;;;;;;5.97;4.10;;;-5.60;99.90;;;;;;5053716;28;20963;-72
2024/01/10 02:13:54;;;;;;;6.30;4.33;;;-5.60;99.90;;;;;;5053569;28;20183;-72
2024/01/10 02:16:20;;;;;;;6.10;4.00;;;-5.60;99.90;;;;;;5053616;28;20401;-71
2024/01/10 02:18:46;;;;;;;6.90;4.40;;;-5.60;99.90;;;;;;5053861;28;20397;-71
2024/01/10 02:21:11;;;;;;;8.13;4.17;;;-5.60;99.90;;;;;;5053759;28;20412;-70
2024/01/10 02:23:37;;;;;;;8.13;4.40;;;-5.60;99.90;;;;;;5053088;28;20213;-72
2024/01/10 02:26:02;;;;;;;6.27;3.90;;;-5.60;99.90;;;;;;5053532;28;20529;-72
2024/01/10 02:28:28;;;;;;;8.80;4.57;;;-5.60;99.90;;;;;;5053542;28;20221;-71
2024/01/10 02:30:54;;;;;;;6.87;3.70;;;-5.60;99.90;;;;;;5053501;28;20166;-71
2024/01/10 02:33:20;;;;;;;7.20;5.07;;;-5.60;99.90;;;;;;5053222;28;20269;-71
2024/01/10 02:35:45;;;;;;;4.30;3.90;;;-5.60;99.90;;;;;;5053165;28;20485;-71
2024/01/10 02:38:11;;;;;;;17.97;6.93;;;-5.70;99.90;;;;;;5053200;28;20167;-71
2024/01/10 02:40:37;;;;;;;18.20;9.80;;;-5.70;99.90;;;;;;5053015;28;20541;-72
2024/01/10 02:43:02;;;;;;;10.77;5.43;;;-5.70;99.90;;;;;;5052882;28;20167;-71
2024/01/10 02:45:28;;;;;;;10.13;4.60;;;-5.70;99.90;;;;;;5052846;28;20567;-71
2024/01/10 02:47:53;;;;;;;4.93;3.13;;;-5.70;99.90;;;;;;5051634;28;20530;-71
2024/01/10 02:50:19;;;;;;;10.37;4.73;;;-5.70;99.90;;;;;;5052991;28;20237;-72
2024/01/10 02:52:44;;;;;;;6.90;4.93;;;-5.70;99.90;;;;;;5052913;28;20688;-71
2024/01/10 02:55:10;;;;;;;8.13;4.50;;;-5.70;99.90;;;;;;5052761;28;20799;-71
2024/01/10 02:57:35;;;;;;;7.60;4.10;;;-5.80;99.90;;;;;;5051721;28;20175;-71
2024/01/10 03:00:02;;;;;;;7.73;3.67;;;-5.80;99.90;;;;;;5052654;28;20167;-71
2024/01/10 03:02:27;;;;;;;9.13;4.63;;;-5.70;99.90;;;;;;5051530;28;20675;-70
2024/01/10 03:04:53;;;;;;;8.37;5.33;;;-5.80;99.90;;;;;;5053589;28;20453;-72
2024/01/10 03:07:18;;;;;;;10.83;3.67;;;-5.80;99.90;;;;;;5054085;28;20163;-72
2024/01/10 03:09:44;;;;;;;6.10;4.07;;;-5.80;99.90;;;;;;5053902;28;20163;-72
2024/01/10 03:12:11;;;;;;;7.77;4.93;;;-5.80;99.90;;;;;;5053501;28;20588;-72
2024/01/10 03:14:37;;;;;;;6.13;3.87;;;-5.80;99.90;;;;;;5053464;28;20229;-71
2024/01/10 03:17:02;;;;;;;6.60;3.90;;;-5.80;99.90;;;;;;5053326;28;20433;-72
2024/01/10 03:19:28;;;;;;;7.77;5.07;;;-5.80;99.90;;;;;;5053585;28;20593;-73
2024/01/10 03:21:53;;;;;;;7.57;3.90;;;-5.80;99.90;;;;;;5053468;28;20503;-72
2024/01/10 03:24:19;;;;;;;8.10;4.33;;;-5.80;99.90;;;;;;5051860;28;20198;-73
2024/01/10 03:26:45;;;;;;;6.67;3.90;;;-5.80;99.90;;;;;;5053481;28;20809;-73
2024/01/10 03:29:10;;;;;;;5.80;3.87;;;-5.70;99.90;;;;;;5053448;28;20179;-72
2024/01/10 03:31:36;;;;;;;11.30;5.00;;;-5.70;99.90;;;;;;5052220;28;20228;-72
2024/01/10 03:34:01;;;;;;;30.83;13.53;;;-5.70;99.90;;;;;;5051607;28;20206;-72
2024/01/10 03:36:27;;;;;;;14.60;6.73;;;-5.80;99.90;;;;;;5053198;28;20169;-72
2024/01/10 03:38:52;;;;;;;11.23;4.33;;;-5.80;99.90;;;;;;5052968;28;20171;-73
2024/01/10 03:41:20;;;;;;;8.73;4.23;;;-5.80;99.90;;;;;;5053319;28;20660;-73
2024/01/10 03:43:46;;;;;;;11.53;4.20;;;-5.80;99.90;;;;;;5052155;28;20205;-71
2024/01/10 03:46:12;;;;;;;5.90;4.00;;;-5.80;99.90;;;;;;5051919;28;20794;-73
2024/01/10 03:48:40;;;;;;;5.83;3.67;;;-5.80;99.90;;;;;;5051899;28;20191;-72
2024/01/10 03:51:06;;;;;;;5.60;3.23;;;-5.80;99.90;;;;;;5052352;28;20904;-71
2024/01/10 03:53:31;;;;;;;8.53;4.37;;;-5.80;99.90;;;;;;5051671;28;20435;-70
2024/01/10 03:55:57;;;;;;;14.00;5.40;;;-5.70;99.90;;;;;;5052005;28;20163;-70
2024/01/10 03:58:23;;;;;;;11.40;6.10;;;-5.70;99.90;;;;;;5051929;28;20163;-71
2024/01/10 04:00:49;;;;;;;5.87;4.30;;;-5.70;99.90;;;;;;5051438;28;20167;-71
2024/01/10 04:03:14;;;;;;;12.00;6.57;;;-5.80;99.90;;;;;;5050359;28;20504;-71
2024/01/10 04:05:41;;;;;;;7.80;4.07;;;-5.70;99.90;;;;;;5051775;28;20688;-71
2024/01/10 04:08:07;;;;;;;7.43;3.57;;;-5.70;99.90;;;;;;5051811;28;20537;-71
2024/01/10 04:10:32;;;;;;;22.70;9.37;;;-5.70;99.90;;;;;;5051864;28;20397;-71
2024/01/10 04:12:58;;;;;;;11.60;5.00;;;-5.80;99.90;;;;;;5051734;28;20641;-71
2024/01/10 04:15:23;;;;;;;7.97;4.23;;;-5.70;99.90;;;;;;5051465;28;20173;-70
2024/01/10 04:17:49;;;;;;;10.50;3.90;;;-5.80;99.90;;;;;;5051819;28;20590;-71
2024/01/10 04:20:14;;;;;;;6.33;4.07;;;-5.80;99.90;;;;;;5051671;28;20171;-71
2024/01/10 04:22:40;;;;;;;9.13;5.10;;;-5.80;99.90;;;;;;5051664;28;20212;-70
2024/01/10 04:25:07;;;;;;;7.30;3.53;;;-5.80;99.90;;;;;;5051021;28;20214;-70
2024/01/10 04:27:33;;;;;;;11.30;4.50;;;-5.80;99.90;;;;;;5051722;28;20194;-70
2024/01/10 04:29:58;;;;;;;5.07;3.67;;;-5.70;99.90;;;;;;5051693;28;20488;-70
2024/01/10 04:32:24;;;;;;;6.50;3.87;;;-5.70;99.90;;;;;;5051255;28;20497;-70
2024/01/10 04:34:50;;;;;;;5.20;4.17;;;-5.80;99.90;;;;;;5051253;28;20432;-70
2024/01/10 04:37:16;;;;;;;7.90;4.97;;;-5.80;99.90;;;;;;5051562;28;20197;-70
2024/01/10 04:39:42;;;;;;;7.33;3.50;;;-5.80;99.90;;;;;;5051567;28;20170;-70
2024/01/10 04:42:10;;;;;;;11.43;4.33;;;-5.80;99.90;;;;;;5062467;28;20477;-72
2024/01/10 04:44:36;;;;;;;6.53;4.00;;;-5.80;99.90;;;;;;5070375;28;20987;-73
2024/01/10 04:47:02;;;;;;;7.40;3.97;;;-5.80;99.90;;;;;;5051923;28;20413;-71
2024/01/10 04:49:27;;;;;;;9.60;3.40;;;-5.70;99.90;;;;;;5051352;28;20765;-71
2024/01/10 04:51:53;;;;;;;9.77;5.77;;;-5.70;99.90;;;;;;5051232;28;20563;-72
2024/01/10 04:54:18;;;;;;;6.30;4.77;;;-5.80;99.90;;;;;;5051184;28;20195;-71
2024/01/10 04:56:44;;;;;;;8.67;4.50;;;-5.80;99.90;;;;;;5050048;28;20233;-71
2024/01/10 04:59:10;;;;;;;5.70;3.90;;;-5.80;99.90;;;;;;5051353;28;20178;-72
2024/01/10 05:01:36;;;;;;;7.77;5.30;;;-5.80;99.90;;;;;;5051377;28;20221;-71
2024/01/10 05:04:02;;;;;;;7.03;4.57;;;-5.80;99.90;;;;;;5050733;28;21019;-74
2024/01/10 05:06:28;;;;;;;11.30;4.73;;;-5.80;99.90;;;;;;5051076;28;20496;-72
2024/01/10 05:08:57;;;;;;;6.60;3.43;;;-5.80;99.90;;;;;;5051175;28;20163;-71
2024/01/10 05:11:24;;;;;;;6.07;4.47;;;-5.80;99.90;;;;;;5053622;28;20525;-70
2024/01/10 05:13:50;;;;;;;7.70;3.57;;;-5.80;99.90;;;;;;5054799;28;20425;-71
2024/01/10 05:16:16;;;;;;;13.03;4.70;;;-5.80;99.90;;;;;;5054879;28;20488;-72
2024/01/10 05:18:41;;;;;;;6.13;3.60;;;-5.80;99.90;;;;;;5054455;28;20193;-73
2024/01/10 05:21:07;;;;;;;69.40;30.17;;;-5.80;99.90;;;;;;5054819;28;20500;-70
2024/01/10 05:23:32;;;;;;;41.67;23.23;;;-5.90;99.90;;;;;;5054612;28;20190;-70
2024/01/10 05:25:58;;;;;;;26.07;11.07;;;-5.90;99.90;;;;;;5054788;28;20190;-71
2024/01/10 05:28:24;;;;;;;11.43;5.50;;;-5.90;99.90;;;;;;5054789;28;20596;-70
2024/01/10 05:30:49;;;;;;;18.93;5.87;;;-5.90;99.90;;;;;;5053608;28;20426;-70
2024/01/10 05:33:15;;;;;;;8.80;4.73;;;-5.90;99.90;;;;;;5053054;28;20388;-70
2024/01/10 05:35:41;;;;;;;10.63;4.57;;;-5.90;99.90;;;;;;5054518;28;20182;-70
2024/01/10 05:38:06;;;;;;;8.83;4.90;;;-5.90;99.90;;;;;;5053027;28;20594;-71
2024/01/10 05:40:32;;;;;;;6.37;3.83;;;-5.90;99.90;;;;;;5054483;28;20630;-72
2024/01/10 05:42:59;;;;;;;8.60;4.50;;;-5.90;99.90;;;;;;5054278;28;20437;-72
2024/01/10 05:45:25;;;;;;;6.90;3.70;;;-5.90;99.90;;;;;;5053833;28;20285;-72
2024/01/10 05:47:50;;;;;;;8.33;5.53;;;-5.90;99.90;;;;;;5054122;28;20484;-72
2024/01/10 05:50:17;;;;;;;6.53;4.50;;;-5.90;99.90;;;;;;5054268;28;20405;-72
2024/01/10 05:52:43;;;;;;;10.63;5.43;;;-5.90;99.90;;;;;;5054161;28;20185;-72
2024/01/10 05:55:09;;;;;;;3.00;2.73;;;-6.00;99.90;;;;;;5052587;28;20997;-72
2024/01/10 05:57:38;;;;;;;7.23;4.30;;;-6.00;99.90;;;;;;5054218;28;20916;-72
2024/01/10 06:00:09;;;;;;;6.50;4.33;;;-6.00;99.90;;;;;;5054114;28;21033;-72
2024/01/10 06:02:38;;;;;;;6.33;3.87;;;-6.00;99.90;;;;;;5053950;28;20420;-72
2024/01/10 06:05:08;;;;;;;10.43;4.50;;;-6.00;99.90;;;;;;5053582;28;20467;-72
2024/01/10 06:07:37;;;;;;;5.10;4.30;;;-6.00;99.90;;;;;;5054101;28;20484;-72
2024/01/10 06:10:04;;;;;;;9.17;4.80;;;-6.00;99.90;;;;;;5052710;28;20513;-72
2024/01/10 06:12:29;;;;;;;6.73;4.73;;;-6.00;99.90;;;;;;5052581;28;20508;-72
2024/01/10 06:14:55;;;;;;;10.87;4.57;;;-6.00;99.90;;;;;;5055474;28;20456;-72
2024/01/10 06:17:21;;;;;;;16.20;3.97;;;-6.00;99.90;;;;;;5056653;28;20175;-74
2024/01/10 06:19:47;;;;;;;5.20;3.60;;;-6.00;99.90;;;;;;5054995;28;20179;-73
2024/01/10 06:22:13;;;;;;;9.57;2.90;;;-6.00;99.90;;;;;;5054401;28;20776;-73
2024/01/10 06:24:38;;;;;;;7.63;4.07;;;-6.00;99.90;;;;;;5054611;28;20457;-72
2024/01/10 06:27:05;;;;;;;7.07;3.70;;;-5.90;99.90;;;;;;5054849;28;20979;-74
2024/01/10 06:29:31;;;;;;;5.63;3.43;;;-6.00;99.90;;;;;;5054672;28;20171;-74
2024/01/10 06:31:57;;;;;;;6.40;3.47;;;-6.00;99.90;;;;;;5055917;28;20412;-73
2024/01/10 06:34:23;;;;;;;5.80;3.03;;;-6.00;99.90;;;;;;5054825;28;20227;-72
2024/01/10 06:36:49;;;;;;;4.33;3.93;;;-5.90;99.90;;;;;;5056047;28;20445;-72
2024/01/10 06:39:15;;;;;;;7.43;5.00;;;-5.90;99.90;;;;;;5055477;28;20989;-73
2024/01/10 06:41:42;;;;;;;6.93;4.43;;;-5.90;99.90;;;;;;5053364;28;20159;-73
2024/01/10 06:44:08;;;;;;;7.20;4.27;;;-5.90;99.90;;;;;;5052902;28;20819;-71
2024/01/10 06:46:33;;;;;;;8.17;4.00;;;-5.90;99.90;;;;;;5054380;28;20455;-73
2024/01/10 06:48:59;;;;;;;5.53;3.73;;;-5.90;99.90;;;;;;5052813;28;20190;-71
2024/01/10 06:51:26;;;;;;;8.33;4.47;;;-5.90;99.90;;;;;;5052029;28;20175;-71
2024/01/10 06:53:52;;;;;;;9.00;5.70;;;-5.90;99.90;;;;;;5052976;28;20179;-71
2024/01/10 06:56:17;;;;;;;12.83;5.90;;;-5.90;99.90;;;;;;5053157;28;20413;-70
2024/01/10 06:58:44;;;;;;;11.03;5.70;;;-5.90;99.90;;;;;;5053260;28;20171;-71
2024/01/10 07:01:13;;;;;;;8.93;5.57;;;-5.90;99.90;;;;;;5053059;28;20235;-71
2024/01/10 07:03:39;;;;;;;13.83;5.40;;;-5.90;99.90;;;;;;5052587;28;20506;-71
2024/01/10 07:06:05;;;;;;;7.80;4.57;;;-5.90;99.90;;;;;;5051475;28;20812;-71
2024/01/10 07:08:30;;;;;;;13.53;5.43;;;-5.90;99.90;;;;;;5051549;28;20420;-71
2024/01/10 07:10:56;;;;;;;13.87;6.80;;;-5.90;99.90;;;;;;5052765;28;20213;-71
2024/01/10 07:13:23;;;;;;;9.63;4.83;;;-5.90;99.90;;;;;;5052422;28;20187;-71
2024/01/10 07:15:50;;;;;;;6.10;3.83;;;-6.00;99.90;;;;;;5052675;28;20397;-71
2024/01/10 07:18:16;;;;;;;9.00;5.50;;;-5.90;99.90;;;;;;5052697;28;20413;-71
2024/01/10 07:20:41;;;;;;;10.40;5.47;;;-6.00;99.90;;;;;;5051392;28;20771;-72
2024/01/10 07:23:07;;;;;;;11.83;5.50;;;-5.90;99.90;;;;;;5052298;28;20695;-72
2024/01/10 07:25:33;;;;;;;13.30;6.90;;;-5.90;99.90;;;;;;5052394;28;20226;-71
2024/01/10 07:27:59;;;;;;;11.53;6.80;;;-5.90;99.90;;;;;;5052590;28;20159;-71
2024/01/10 07:30:26;;;;;;;10.50;5.70;;;-5.90;99.90;;;;;;5052949;28;20409;-72
2024/01/10 07:32:52;;;;;;;10.43;4.93;;;-5.90;99.90;;;;;;5053057;28;20193;-72
2024/01/10 07:35:17;;;;;;;11.23;5.90;;;-5.90;99.90;;;;;;5051260;28;20766;-72
2024/01/10 07:37:44;;;;;;;12.80;5.93;;;-5.90;99.90;;;;;;5052362;28;20171;-72
2024/01/10 07:40:13;;;;;;;9.20;5.37;;;-5.90;99.90;;;;;;5052169;28;20170;-70
2024/01/10 07:42:39;;;;;;;16.27;8.40;;;-5.80;99.90;;;;;;5050265;28;20776;-71
2024/01/10 07:45:05;;;;;;;18.07;8.20;;;-5.80;99.90;;;;;;5051738;28;20453;-71
2024/01/10 07:47:32;;;;;;;10.50;5.10;;;-5.70;99.90;;;;;;5052138;28;20520;-70
2024/01/10 07:49:58;;;;;;;8.40;5.07;;;-5.70;99.90;;;;;;5052196;28;20402;-71
2024/01/10 07:52:23;;;;;;;8.50;4.57;;;-5.60;99.90;;;;;;5051893;28;20417;-71
2024/01/10 07:54:49;;;;;;;7.00;5.40;;;-5.50;99.90;;;;;;5051729;28;20427;-71
2024/01/10 07:57:14;;;;;;;9.63;6.10;;;-5.40;99.90;;;;;;5052070;28;20674;-70
2024/01/10 07:59:40;;;;;;;5.77;4.17;;;-5.40;99.90;;;;;;5051818;28;20167;-71
2024/01/10 08:02:06;;;;;;;8.20;4.40;;;-5.30;99.90;;;;;;5050796;28;20171;-71
2024/01/10 08:04:32;;;;;;;6.67;4.60;;;-5.20;99.90;;;;;;5051421;28;20214;-70
2024/01/10 08:06:58;;;;;;;7.10;3.60;;;-5.20;99.90;;;;;;5051867;28;20523;-71
2024/01/10 08:09:24;;;;;;;12.20;7.97;;;-5.20;99.90;;;;;;5051987;28;20163;-71
2024/01/10 08:11:50;;;;;;;7.63;5.27;;;-5.10;99.90;;;;;;5051920;28;20768;-70
2024/01/10 08:14:16;;;;;;;6.90;4.40;;;-5.10;99.90;;;;;;5051568;28;20670;-69
2024/01/10 08:16:41;;;;;;;9.37;4.17;;;-5.10;99.90;;;;;;5051727;28;20405;-70
2024/01/10 08:19:07;;;;;;;7.60;4.60;;;-5.00;99.90;;;;;;5051826;28;20410;-70
2024/01/10 08:21:33;;;;;;;6.73;4.47;;;-5.00;99.90;;;;;;5051739;28;20175;-70
2024/01/10 08:23:59;;;;;;;5.60;3.80;;;-4.90;99.90;;;;;;5051359;28;20423;-71
2024/01/10 08:26:26;;;;;;;6.70;3.87;;;-4.80;99.90;;;;;;5051706;28;20163;-70
2024/01/10 08:28:52;;;;;;;9.60;5.53;;;-4.70;99.90;;;;;;5051659;28;20413;-70
2024/01/10 08:31:18;;;;;;;8.63;4.70;;;-4.60;99.90;;;;;;5051655;28;20420;-71
2024/01/10 08:33:43;;;;;;;7.73;5.27;;;-4.50;99.90;;;;;;5051344;28;20618;-71
2024/01/10 08:36:12;;;;;;;7.30;3.93;;;-4.50;99.90;;;;;;5051516;28;20653;-70
2024/01/10 08:38:38;;;;;;;13.80;4.87;;;-4.40;99.90;;;;;;5051578;28;20178;-70
2024/01/10 08:41:04;;;;;;;5.83;5.33;;;-4.30;99.90;;;;;;5051489;28;20753;-70
2024/01/10 08:43:30;;;;;;;9.63;4.80;;;-4.20;99.90;;;;;;5051219;28;20183;-70
2024/01/10 08:45:57;;;;;;;9.63;5.43;;;-4.10;99.90;;;;;;5052713;28;20463;-68
2024/01/10 08:48:23;;;;;;;13.27;5.83;;;-4.00;99.90;;;;;;5055476;28;20462;-69
2024/01/10 08:50:49;;;;;;;5.20;3.80;;;-4.00;99.90;;;;;;5054104;28;20473;-69
2024/01/10 08:53:16;;;;;;;11.17;5.47;;;-3.90;99.90;;;;;;5055048;28;20528;-69
2024/01/10 08:55:41;;;;;;;11.17;5.93;;;-3.80;99.90;;;;;;5055246;28;20415;-68
2024/01/10 08:58:07;;;;;;;6.97;4.53;;;-3.70;99.90;;;;;;5055522;28;20405;-69
2024/01/10 09:00:33;;;;;;;7.80;6.30;;;-3.60;99.90;;;;;;5055269;28;20171;-69
2024/01/10 09:02:59;;;;;;;8.73;5.63;;;-3.50;99.90;;;;;;5053898;28;20457;-69
2024/01/10 09:05:25;;;;;;;10.97;6.00;;;-3.40;99.90;;;;;;5054765;28;20448;-70
2024/01/10 09:07:50;;;;;;;8.40;4.43;;;-3.30;99.90;;;;;;5055093;28;20175;-69
2024/01/10 09:10:16;;;;;;;7.10;4.80;;;-3.20;99.90;;;;;;5053782;28;20167;-69
2024/01/10 09:12:45;;;;;;;7.53;4.77;;;-3.10;99.90;;;;;;5054884;28;20171;-69
2024/01/10 09:15:14;;;;;;;10.27;5.23;;;-3.10;99.90;;;;;;5054833;28;20425;-67
2024/01/10 09:17:41;;;;;;;10.63;5.07;;;-3.00;99.90;;;;;;5053620;28;20496;-68
2024/01/10 09:20:08;;;;;;;10.90;6.43;;;-2.90;99.90;;;;;;5053593;28;20406;-67
2024/01/10 09:22:34;;;;;;;7.40;3.60;;;-2.70;99.90;;;;;;5053505;28;20409;-66
2024/01/10 09:25:03;;;;;;;7.77;5.00;;;-2.50;99.90;;;;;;5054746;28;20453;-67
2024/01/10 09:27:30;;;;;;;10.70;5.23;;;-2.40;99.90;;;;;;5054820;28;20518;-69
2024/01/10 09:29:55;;;;;;;10.23;6.07;;;-2.20;99.90;;;;;;5054767;28;20464;-68
2024/01/10 09:32:22;;;;;;;10.07;5.17;;;-1.90;99.90;;;;;;5054671;28;20405;-69
2024/01/10 09:34:47;;;;;;;9.17;4.37;;;-1.70;99.90;;;;;;5054386;28;20286;-69
2024/01/10 09:37:13;;;;;;;10.17;5.80;;;-1.60;99.90;;;;;;5054631;28;20484;-69
2024/01/10 09:39:38;;;;;;;10.40;6.03;;;-1.40;99.90;;;;;;5054616;28;20171;-68
2024/01/10 09:42:04;;;;;;;6.97;4.93;;;-1.20;99.90;;;;;;5054530;28;20610;-70
2024/01/10 09:44:30;;;;;;;14.90;6.30;;;-1.10;99.90;;;;;;5054365;28;20685;-68
2024/01/10 09:46:56;;;;;;;9.73;5.47;;;-0.90;99.90;;;;;;5054567;28;20440;-69
2024/01/10 09:49:21;;;;;;;6.23;4.73;;;-0.50;99.90;;;;;;5054408;28;20163;-70
2024/01/10 09:51:49;;;;;;;15.23;7.50;;;0.00;99.90;;;;;;5052939;28;20741;-70
2024/01/10 09:54:16;;;;;;;10.50;5.93;;;0.50;99.90;;;;;;5052780;28;20682;-69
2024/01/10 09:56:43;;;;;;;10.40;6.77;;;1.00;99.90;;;;;;5053513;28;20527;-70
2024/01/10 09:59:13;;;;;;;10.60;6.37;;;1.20;99.90;;;;;;5053930;28;20433;-70
2024/01/10 10:01:39;;;;;;;6.60;5.17;;;1.50;99.90;;;;;;5054114;28;20221;-70
2024/01/10 10:04:07;;;;;;;14.40;7.17;;;1.70;99.90;;;;;;5053685;28;20464;-70
2024/01/10 10:06:34;;;;;;;15.33;6.23;;;2.00;99.90;;;;;;5054029;28;20228;-70
2024/01/10 10:08:59;;;;;;;12.30;7.50;;;2.30;99.90;;;;;;5054008;28;20405;-70
2024/01/10 10:11:25;;;;;;;13.17;6.70;;;2.40;99.90;;;;;;5053898;28;20920;-70
2024/01/10 10:13:51;;;;;;;16.60;6.90;;;2.50;99.90;;;;;;5053597;28;20187;-70
2024/01/10 10:16:23;;;;;;;13.30;6.77;;;2.40;98.30;;;;;;5053743;28;20402;-69
2024/01/10 10:18:50;;;;;;;10.80;7.07;;;2.60;95.20;;;;;;5053847;28;20167;-70
2024/01/10 10:21:16;;;;;;;16.70;8.20;;;2.90;92.90;;;;;;5053749;28;20488;-70
2024/01/10 10:23:43;;;;;;;10.07;7.20;;;3.30;92.40;;;;;;5053388;28;20508;-69
2024/01/10 10:26:21;;;;;;;12.17;6.57;;;4.00;92.30;;;;;;5053477;28;20469;-69
2024/01/10 10:28:47;;;;;;;12.60;7.13;;;4.60;89.30;;;;;;5053563;28;20488;-69
2024/01/10 10:31:14;;;;;;;12.77;7.53;;;5.20;84.50;;;;;;5053658;28;20916;-70
2024/01/10 10:33:40;;;;;;;14.73;7.33;;;5.70;79.60;;;;;;5052002;28;20850;-69
2024/01/10 10:36:06;;;;;;;11.80;6.60;;;6.30;76.70;;;;;;5053376;28;20399;-69
2024/01/10 10:38:32;;;;;;;14.90;7.43;;;6.80;67.50;;;;;;5053483;28;20425;-72
2024/01/10 10:40:59;;;;;;;12.33;7.97;;;7.50;59.40;;;;;;5053295;28;20440;-71
2024/01/10 10:43:25;;;;;;;11.40;6.73;;;7.80;54.20;;;;;;5053162;28;20244;-71
2024/01/10 10:45:51;;;;;;;14.93;7.23;;;8.10;50.60;;;;;;5053070;28;20449;-71
2024/01/10 10:48:20;;;;;;;13.40;7.50;;;8.50;50.00;;;;;;5053425;28;21215;-71
2024/01/10 10:51:01;;;;;;;14.10;7.53;;;8.80;48.70;;;;;;5053192;28;20397;-71
2024/01/10 10:53:28;;;;;;;14.53;8.47;;;8.20;44.70;;;;;;5053101;28;21001;-70
2024/01/10 10:55:56;;;;;;;13.60;8.10;;;7.60;44.40;;;;;;5052943;28;20405;-70
2024/01/10 10:58:22;;;;;;;11.73;7.13;;;6.90;44.90;;;;;;5053090;28;20405;-70
2024/01/10 11:00:48;;;;;;;12.37;8.43;;;6.10;44.10;;;;;;5053113;28;20409;-70
2024/01/10 11:03:16;;;;;;;14.33;8.33;;;5.50;44.10;;;;;;5052387;28;20198;-70
2024/01/10 11:05:41;;;;;;;15.00;7.97;;;5.50;45.10;;;;;;5052845;28;20503;-70
2024/01/10 11:08:10;;;;;;;11.63;7.60;;;6.10;47.50;;;;;;5052793;28;20406;-71
2024/01/10 11:10:39;;;;;;;9.40;6.47;;;6.60;46.00;;;;;;5051242;28;20533;-72
2024/01/10 11:13:28;;;;;;;11.37;7.50;;;7.10;48.90;;;;;;5052596;28;20401;-71
2024/01/10 11:16:12;;;;;;;12.77;8.83;;;7.60;48.10;;;;;;5057234;28;20931;-71
2024/01/10 11:18:54;;;;;;;16.20;7.43;;;8.10;47.30;;;;;;5072603;28;20415;-71
2024/01/10 11:21:28;;;;;;;15.47;8.47;;;9.10;48.40;;;;;;5072696;28;20404;-70
2024/01/10 11:23:59;;;;;;;12.73;7.50;;;9.70;45.50;;;;;;5072232;28;20435;-71
2024/01/10 11:26:26;;;;;;;13.00;8.10;;;10.30;42.00;;;;;;5071247;28;20791;-71
2024/01/10 11:28:51;;;;;;;14.13;8.17;;;11.10;41.20;;;;;;5072493;28;20424;-71
2024/01/10 11:31:29;;;;;;;17.90;8.57;;;12.00;38.00;;;;;;5072411;28;20420;-71
2024/01/10 11:33:56;;;;;;;11.40;8.97;;;12.00;34.00;;;;;;5072131;28;20446;-71
2024/01/10 11:36:24;;;;;;;11.77;7.90;;;11.60;31.50;;;;;;5071048;28;20408;-70
2024/01/10 11:38:51;;;;;;;10.70;8.60;;;11.30;32.20;;;;;;5070987;28;20400;-70
2024/01/10 11:41:37;;;;;;;11.37;8.37;;;11.10;33.10;;;;;;5072320;28;20454;-70
2024/01/10 11:44:11;;;;;;;16.50;9.80;;;10.60;33.10;;;;;;5071875;28;20430;-70
2024/01/10 11:46:41;;;;;;;12.37;8.10;;;9.80;32.60;;;;;;5072105;28;20479;-70
2024/01/10 11:49:11;;;;;;;18.37;8.63;;;9.00;32.70;;;;;;5072147;28;20409;-72
2024/01/10 11:51:37;;;;;;;13.83;8.07;;;8.10;32.90;;;;;;5070755;28;20429;-71
2024/01/10 11:54:03;;;;;;;16.27;8.53;;;7.40;33.90;;;;;;5071683;28;20976;-70
2024/01/10 11:56:39;;;;;;;17.50;8.83;;;7.00;34.80;;;;;;5072003;28;20432;-70
2024/01/10 11:59:11;;;;;;;20.40;9.27;;;6.60;35.00;;;;;;5072004;28;20166;-70
2024/01/10 12:01:37;;;;;;;19.97;11.40;;;6.20;35.60;;;;;;5071820;28;20507;-70
2024/01/10 12:04:04;;;;;;;13.37;7.93;;;6.10;36.20;;;;;;5070246;28;20848;-71
2024/01/10 12:06:36;;;;;;;13.27;9.53;;;6.10;36.90;;;;;;5071856;28;20436;-70
2024/01/10 12:09:09;;;;;;;14.13;9.40;;;6.20;37.30;;;;;;5071894;28;20407;-71
2024/01/10 12:11:39;;;;;;;13.67;7.80;;;6.30;37.40;;;;;;5071966;28;20481;-72
2024/01/10 12:14:05;;;;;;;14.60;8.10;;;6.40;37.40;;;;;;5070408;28;20481;-69
2024/01/10 12:16:32;;;;;;;15.53;9.13;;;6.60;37.60;;;;;;5071822;28;20409;-69
2024/01/10 12:18:58;;;;;;;14.60;9.00;;;6.80;37.90;;;;;;5071812;28;20428;-71
2024/01/10 12:21:23;;;;;;;12.00;8.17;;;7.60;39.30;;;;;;5071182;28;20455;-71
2024/01/10 12:23:51;;;;;;;20.27;9.33;;;8.90;37.90;;;;;;5071466;28;20552;-71
2024/01/10 12:26:17;;;;;;;15.10;8.10;;;10.10;35.40;;;;;;5071669;28;20186;-71
2024/01/10 12:28:56;;;;;;;15.10;8.30;;;11.80;36.00;;;;;;5071675;28;20401;-71
2024/01/10 12:31:25;;;;;;;13.80;9.33;;;14.00;35.90;;;;;;5070492;28;20432;-70
2024/01/10 12:33:51;;;;;;;16.60;9.33;;;15.10;29.90;;;;;;5070166;28;20412;-70
2024/01/10 12:36:17;;;;;;;15.67;9.40;;;15.40;28.80;;;;;;5071603;28;20411;-70
2024/01/10 12:38:44;;;;;;;14.93;9.60;;;15.60;28.50;;;;;;5071741;28;20748;-71